Latest Weather Observations for Gladstone Airport

IDQ60801

Issued at 10:35 pm EST Wednesday 26 November 2014 (issued every 30 minutes, with the page automatically refreshed every 10 minutes)

About weather observations | Map of weather stations | Latest weather observations for QLD | Other Formats
Station Details ID: 039326 Name: GLADSTONE AIRPORT Lat: -23.87 Lon: 151.22 Height: 16.6 m
Data from the previous 72 hours. | See also: Recent months at Gladstone Airport
Date/Time
EST
Temp
°C
App
Temp
°C
Dew
Point
Rel
Hum
%
Delta-T
°C
Wind Press
QNH
hPa
Press
MSL
hPa
Rain
since 9 am
mm
Dir
 
Spd
km/h
Gust
km/h
Spd
kts
Gust
kts
26/10:30pm 25.5 25.8 19.6 70 3.8 E 17 24 9 13 1016.1 1016.1 0.0
26/10:00pm 25.4 25.2 19.3 69 3.9 E 19 26 10 14 1015.9 1015.9 0.0
26/09:30pm 25.4 25.8 19.8 71 3.6 E 17 22 9 12 1016.0 1016.0 0.0
26/09:00pm 25.4 25.7 19.5 70 3.8 E 17 24 9 13 1015.8 1015.8 0.0
26/08:30pm 25.5 25.9 19.9 71 3.6 E 17 24 9 13 1015.6 1015.6 0.0
26/08:00pm 25.7 26.2 20.0 71 3.7 E 17 22 9 12 1015.7 1015.7 0.0
26/07:30pm 25.7 25.8 20.0 71 3.7 E 19 24 10 13 1015.1 1015.1 0.0
26/07:00pm 25.7 25.5 19.3 67 4.1 ENE 19 22 10 12 1014.8 1014.7 0.0
26/06:30pm 26.0 25.5 19.2 66 4.4 E 20 28 11 15 1014.4 1014.3 0.0
26/06:00pm 26.3 25.8 19.2 65 4.6 E 20 28 11 15 1014.1 1014.0 0.0
26/05:30pm 26.4 26.1 19.5 66 4.5 ENE 20 26 11 14 1014.1 1014.0 0.0
26/05:00pm 27.1 26.5 19.7 64 4.8 ENE 22 32 12 17 1013.8 1013.7 0.0
26/04:30pm 27.4 27.2 20.5 66 4.5 E 22 32 12 17 1013.7 1013.6 0.0
26/04:00pm 27.8 27.2 20.4 64 4.9 ENE 24 30 13 16 1013.6 1013.5 0.0
26/03:30pm 27.6 27.0 20.4 65 4.7 ENE 24 30 13 16 1013.6 1013.5 0.0
26/03:00pm 28.2 27.1 20.2 62 5.3 E 26 33 14 18 1013.5 1013.4 0.0
26/02:30pm 28.5 27.8 20.2 60 5.5 E 24 33 13 18 1013.8 1013.7 0.0
26/02:00pm 28.8 28.0 20.0 59 5.8 ENE 24 32 13 17 1013.9 1013.8 0.0
26/01:30pm 29.4 28.2 18.5 52 7.0 E 22 32 12 17 1014.3 1014.2 0.0
26/01:00pm 29.3 29.5 20.5 59 5.8 ENE 20 30 11 16 1014.5 1014.4 0.0
26/12:30pm 29.2 28.1 19.5 56 6.3 E 24 30 13 16 1014.8 1014.7 0.0
26/12:00pm 28.6 28.6 20.1 60 5.6 ENE 20 24 11 13 1015.3 1015.3 0.0
26/11:30am 28.9 28.3 20.6 61 5.5 E 24 33 13 18 1015.5 1015.5 0.0
26/11:00am 28.2 27.1 20.2 62 5.2 E 26 39 14 21 1015.6 1015.6 0.0
26/10:30am 28.5 27.1 18.9 56 6.2 ENE 24 35 13 19 1015.7 1015.7 0.0
26/10:00am 28.5 27.5 20.5 62 5.3 E 26 35 14 19 1015.8 1015.8 0.0
26/09:30am 26.9 25.7 20.0 66 4.5 E 26 33 14 18 1016.0 1016.0 0.0
26/09:00am 27.2 26.9 20.3 66 4.5 NE 22 28 12 15 1016.1 1016.1 0.0
26/08:30am 26.8 26.3 19.9 66 4.5 E 22 32 12 17 1016.1 1016.1 0.0
26/08:00am 26.9 27.3 20.7 69 4.1 E 19 26 10 14 1016.1 1016.1 0.0
26/07:30am 26.6 26.9 20.7 70 3.9 E 20 28 11 15 1015.9 1015.9 0.0
26/07:00am 26.5 26.3 20.6 70 3.9 E 22 28 12 15 1015.6 1015.6 0.0
26/06:30am 25.9 27.0 21.3 76 3.0 ENE 17 20 9 11 1015.3 1015.3 0.0
26/06:00am 25.9 27.3 21.1 75 3.2 ENE 15 20 8 11 1014.9 1014.9 0.0
26/05:30am 25.4 26.5 21.3 78 2.7 ENE 17 22 9 12 1014.7 1014.6 0.0
26/05:00am 25.1 26.9 21.2 79 2.6 ENE 13 17 7 9 1014.2 1014.1 0.0
26/04:30am 25.1 27.4 21.4 80 2.4 ENE 11 17 6 9 1014.2 1014.1 0.0
26/04:00am 25.2 27.6 21.5 80 2.5 NE 11 15 6 8 1014.0 1013.9 0.0
26/03:30am 25.4 28.6 21.7 80 2.5 E 7 11 4 6 1014.0 1013.9 0.0
26/03:15am 25.3 28.6 21.8 81 2.3 SE 7 9 4 5 1014.0 1013.9 0.0
26/03:05am 25.0 28.1 21.5 81 2.3 SE 7 9 4 5 1014.0 1013.9 0.0
26/03:00am 25.4 28.6 21.7 80 2.5 E 7 11 4 6 1014.0 1013.9 0.0
26/02:30am 25.3 28.6 21.8 81 2.3 NNE 7 11 4 6 1013.6 1013.5 0.0
26/02:00am 25.3 27.8 21.8 81 2.3 NNE 11 15 6 8 1013.4 1013.3 0.0
26/01:30am 25.4 28.4 21.9 81 2.3 NE 9 13 5 7 1013.4 1013.3 0.0
26/01:08am 25.5 28.5 22.0 81 2.3 NE 9 13 5 7 1013.4 1013.3 0.0
26/01:00am 25.4 28.4 21.9 81 2.3 NE 9 13 5 7 1013.6 1013.5 0.0
26/12:30am 25.4 28.9 22.1 82 2.2 NNE 7 13 4 7 1013.8 1013.7 0.0
26/12:01am 25.2 28.3 22.1 83 2.1 N 9 13 5 7 1013.9 1013.8 0.0
26/12:00am 25.2 28.3 22.1 83 2.1 N 9 13 5 7 1013.9 1013.8 0.0
 
Date/Time
EST
Temp
°C
App
Temp
°C
Dew
Point
Rel
Hum
%
Delta-T
°C
Wind Press
QNH
hPa
Press
MSL
hPa
Rain
since 9 am
mm
Dir
 
Spd
km/h
Gust
km/h
Spd
kts
Gust
kts
25/11:30pm 25.2 27.6 22.3 84 1.9 N 13 20 7 11 1014.4 1014.3 0.0
25/11:00pm 25.4 27.8 22.3 83 2.1 N 13 17 7 9 1015.0 1015.0 0.0
25/10:54pm 25.4 27.8 22.3 83 2.1 N 13 17 7 9 1015.0 1015.0 0.0
25/10:41pm 25.7 28.6 22.4 82 2.2 N 11 17 6 9 1015.1 1015.1 0.0
25/10:30pm 25.7 27.7 22.2 81 2.3 N 15 24 8 13 1015.1 1015.1 0.0
25/10:00pm 25.9 28.3 22.2 80 2.5 NNE 13 20 7 11 1015.3 1015.3 0.0
25/09:30pm 25.9 28.3 22.2 80 2.5 NNE 13 20 7 11 1015.4 1015.4 0.0
25/09:00pm 26.1 28.1 22.2 79 2.6 NNE 15 22 8 12 1015.2 1015.2 0.0
25/08:30pm 26.0 27.9 22.1 79 2.6 NNE 15 20 8 11 1015.0 1015.0 0.0
25/08:00pm 26.2 28.0 21.8 77 2.9 NNE 15 22 8 12 1014.7 1014.6 0.0
25/07:30pm 26.2 28.5 22.1 78 2.7 NE 13 20 7 11 1014.2 1014.1 0.0
25/07:00pm 26.3 28.1 21.9 77 2.9 NE 15 20 8 11 1013.9 1013.8 0.0
25/06:36pm 26.3 28.1 21.9 77 2.9 NE 15 22 8 12 1013.6 1013.5 0.0
25/06:30pm 26.4 27.8 21.8 76 3.1 NE 17 22 9 12 1013.5 1013.4 0.0
25/06:16pm 26.5 27.5 21.7 75 3.2 ENE 19 24 10 13 1013.5 1013.4 0.0
25/06:00pm 26.9 27.5 21.4 72 3.7 NE 20 24 11 13 1013.2 1013.1 0.0
25/05:30pm 27.6 28.3 21.2 68 4.3 NE 19 24 10 13 1012.8 1012.7 0.0
25/05:00pm 27.8 27.9 20.4 64 4.9 NE 20 26 11 14 1012.5 1012.4 0.0
25/04:30pm 28.8 29.2 21.0 62 5.2 ENE 20 28 11 15 1012.3 1012.2 0.0
25/04:00pm 29.2 29.4 20.6 59 5.7 ENE 20 26 11 14 1012.4 1012.3 0.0
25/03:30pm 29.3 29.2 19.9 57 6.2 ENE 20 30 11 16 1012.5 1012.4 0.0
25/03:00pm 29.7 29.4 20.3 57 6.2 ENE 22 30 12 16 1012.6 1012.5 0.0
25/02:30pm 29.7 29.5 19.7 55 6.5 ENE 20 30 11 16 1012.7 1012.6 0.0
25/02:00pm 30.7 30.5 19.7 52 7.2 ENE 20 30 11 16 1012.9 1012.8 0.0
25/01:30pm 29.7 28.8 19.1 53 6.9 ENE 22 30 12 16 1013.3 1013.2 0.0
25/01:00pm 30.0 29.1 18.1 49 7.6 ENE 20 24 11 13 1013.5 1013.4 0.0
25/12:30pm 30.5 29.7 17.9 47 8.1 NE 19 28 10 15 1013.9 1013.8 0.0
25/12:00pm 29.4 28.0 15.5 43 8.5 ENE 17 26 9 14 1014.5 1014.4 0.0
25/11:30am 29.8 29.2 16.6 45 8.3 NE 15 22 8 12 1014.7 1014.6 0.0
25/11:00am 28.7 28.1 16.6 48 7.5 NE 15 22 8 12 1015.1 1015.1 0.0
25/10:30am 28.7 28.9 17.6 51 7.0 NE 13 22 7 12 1015.5 1015.5 0.0
25/10:00am 28.7 28.2 17.9 52 6.9 NE 17 22 9 12 1015.7 1015.7 0.0
25/09:30am 28.8 29.5 18.9 55 6.4 ENE 13 19 7 10 1015.9 1015.9 0.0
25/09:00am 28.2 28.5 18.0 54 6.5 E 13 19 7 10 1016.0 1016.0 0.0
25/08:30am 27.8 28.4 18.5 57 5.9 NE 13 22 7 12 1016.3 1016.3 0.0
25/08:00am 27.2 27.3 16.5 52 6.6 ENE 11 17 6 9 1016.0 1016.0 0.0
25/07:30am 26.7 28.1 18.6 61 5.2 E 9 13 5 7 1016.0 1016.0 0.0
25/07:00am 26.3 26.4 18.4 61 5.0 E 15 19 8 10 1015.6 1015.6 0.0
25/06:30am 25.3 27.8 19.9 72 3.5 SE 6 9 3 5 1015.4 1015.4 0.0
25/06:00am 23.5 25.7 19.6 79 2.5 SSW 7 9 4 5 1015.2 1015.2 0.0
25/05:30am 23.8 25.9 19.3 76 2.9 S 7 7 4 4 1014.8 1014.7 0.0
25/05:00am 24.3 26.6 19.4 74 3.1 E 6 7 3 4 1014.5 1014.4 0.0
25/04:30am 24.2 26.2 19.1 73 3.3 NE 7 11 4 6 1014.3 1014.2 0.0
25/04:00am 24.3 25.8 18.9 72 3.4 ENE 9 17 5 9 1014.1 1014.0 0.0
25/03:30am 24.7 25.6 19.3 72 3.5 ENE 13 20 7 11 1014.0 1013.9 0.0
25/03:00am 24.9 26.3 19.5 72 3.5 NE 11 17 6 9 1014.0 1013.9 0.0
25/02:30am 24.8 26.7 19.8 74 3.2 ENE 9 11 5 6 1014.1 1014.0 0.0
25/02:00am 24.8 25.8 19.4 72 3.5 NE 13 19 7 10 1014.2 1014.1 0.0
25/01:30am 24.7 25.9 19.1 71 3.6 ENE 11 15 6 8 1014.3 1014.2 0.0
25/01:00am 25.0 26.4 19.6 72 3.5 NNE 11 17 6 9 1014.6 1014.5 0.0
25/12:30am 25.1 26.1 19.5 71 3.6 ENE 13 19 7 10 1014.9 1014.9 0.0
25/12:00am 25.2 25.7 19.3 70 3.8 NNE 15 20 8 11 1015.3 1015.3 0.0
 
Date/Time
EST
Temp
°C
App
Temp
°C
Dew
Point
Rel
Hum
%
Delta-T
°C
Wind Press
QNH
hPa
Press
MSL
hPa
Rain
since 9 am
mm
Dir
 
Spd
km/h
Gust
km/h
Spd
kts
Gust
kts
24/11:30pm 25.3 25.9 19.4 70 3.8 ENE 15 19 8 10 1015.3 1015.3 0.0
24/11:00pm 25.3 27.0 20.1 73 3.4 NNE 11 17 6 9 1015.7 1015.7 0.0
24/10:30pm 25.3 26.5 19.9 72 3.5 NNE 13 19 7 10 1015.8 1015.8 0.0
24/10:00pm 25.4 26.6 19.8 71 3.6 NNE 13 15 7 8 1015.8 1015.8 0.0
24/09:30pm 25.5 26.2 19.6 70 3.8 NNE 15 20 8 11 1015.7 1015.7 0.0
24/09:00pm 25.7 26.5 19.8 70 3.8 NNE 15 24 8 13 1015.5 1015.5 0.0
24/08:30pm 25.7 26.4 19.6 69 3.9 NNE 15 22 8 12 1015.2 1015.2 0.0
24/08:00pm 25.6 25.5 19.5 69 3.9 NNE 19 30 10 16 1014.9 1014.9 0.0
24/07:30pm 25.9 26.7 19.8 69 4.0 NE 15 20 8 11 1014.7 1014.6 0.0
24/07:00pm 25.8 26.0 19.4 67 4.1 ENE 17 22 9 12 1014.5 1014.4 0.0
24/06:30pm 26.0 26.2 19.4 67 4.3 NE 17 22 9 12 1014.3 1014.2 0.0
24/06:00pm 26.2 26.1 19.6 67 4.3 NE 19 24 10 13 1014.0 1013.9 0.0
24/05:30pm 26.5 26.4 19.6 66 4.5 NE 19 26 10 14 1013.4 1013.3 0.0
24/05:00pm 26.9 26.4 19.0 62 5.1 NE 20 28 11 15 1013.2 1013.1 0.0
24/04:30pm 27.1 26.3 19.2 62 5.1 ENE 22 30 12 16 1013.2 1013.1 0.0
24/04:00pm 27.8 26.6 18.5 57 5.9 ENE 22 30 12 16 1013.2 1013.1 0.0
24/03:30pm 27.9 26.8 18.6 57 6.0 ENE 22 28 12 15 1013.4 1013.3 0.0
24/03:00pm 28.8 28.2 18.9 55 6.4 ENE 20 28 11 15 1013.7 1013.6 0.0
24/02:30pm 28.4 27.8 18.8 56 6.2 ENE 20 33 11 18 1014.1 1014.0 0.0
24/02:00pm 28.3 27.1 18.4 55 6.3 ENE 22 30 12 16 1014.4 1014.3 0.0
24/01:30pm 28.4 27.2 18.5 55 6.3 ENE 22 32 12 17 1014.7 1014.6 0.0
24/01:00pm 28.9 27.8 18.7 54 6.6 ENE 22 32 12 17 1015.1 1015.1 0.0
24/12:30pm 29.0 28.2 19.3 55 6.3 ENE 22 32 12 17 1015.4 1015.4 0.0
24/12:00pm 28.4 28.0 19.3 57 5.9 ENE 20 30 11 16 1015.9 1015.9 0.0
24/11:30am 28.8 28.1 18.6 54 6.6 ENE 20 35 11 19 1016.2 1016.2 0.0
24/11:00am 28.6 27.8 19.2 56 6.1 NNE 22 32 12 17 1016.6 1016.6 0.0
24/10:30am 28.9 28.2 19.5 57 6.1 ENE 22 32 12 17 1016.7 1016.7 0.0
24/10:00am 27.8 27.4 19.3 60 5.5 NE 20 30 11 16 1017.1 1017.1 0.0
24/09:30am 27.5 27.5 20.1 64 4.8 NE 20 30 11 16 1017.3 1017.3 0.0
24/09:00am 26.7 26.6 19.6 65 4.6 ENE 19 26 10 14 1017.3 1017.3 0.0
24/08:30am 27.7 28.2 20.0 63 5.0 NNE 17 24 9 13 1017.3 1017.3 0.0
24/08:00am 25.8 28.8 20.8 74 3.3 S 6 9 3 5 1017.4 1017.4 0.0
24/07:30am 24.7 27.2 20.2 76 2.9 S 7 13 4 7 1017.2 1017.2 0.0
24/07:00am 24.2 26.7 20.3 79 2.5 SW 7 9 4 5 1017.0 1017.0 0.0
24/06:30am 24.5 27.3 20.4 78 2.7 SW 6 9 3 5 1016.8 1016.8 0.0
24/06:00am 22.9 24.6 19.3 80 2.3 SSW 9 13 5 7 1016.5 1016.5 0.0
24/05:30am 24.5 26.8 20.6 79 2.5 E 9 17 5 9 1016.3 1016.3 0.0
24/05:00am 23.0 25.0 19.2 79 2.4 SSW 7 11 4 6 1015.9 1015.9 0.0
24/04:30am 24.9 27.1 20.4 76 2.9 NNE 9 15 5 8 1015.9 1015.9 0.0
24/04:00am 25.1 27.0 20.6 76 2.9 NNE 11 17 6 9 1015.6 1015.6 0.0
24/03:30am 24.9 26.9 20.8 78 2.7 E 11 24 6 13 1015.7 1015.7 0.0
24/03:00am 24.7 26.1 20.4 77 2.8 ENE 13 17 7 9 1015.6 1015.6 0.0
24/02:30am 24.5 26.7 20.4 78 2.7 E 9 13 5 7 1015.5 1015.5 0.0
24/02:00am 24.5 26.5 20.0 76 2.9 E 9 13 5 7 1015.6 1015.6 0.0
24/01:30am 24.4 26.6 19.7 75 3.0 E 7 13 4 7 1015.7 1015.7 0.0
24/01:00am 24.4 26.2 19.5 74 3.1 ENE 9 13 5 7 1015.7 1015.7 0.0
24/12:30am 24.5 25.6 18.9 71 3.6 ENE 11 13 6 7 1016.0 1016.0 0.0
24/12:00am 24.8 25.4 18.7 69 3.9 ENE 13 17 7 9 1016.2 1016.2 0.0
 
Date/Time
EST
Temp
°C
App
Temp
°C
Dew
Point
Rel
Hum
%
Delta-T
°C
Wind Press
QNH
hPa
Press
MSL
hPa
Rain
since 9 am
mm
Dir
 
Spd
km/h
Gust
km/h
Spd
kts
Gust
kts
23/11:30pm 24.8 24.7 17.8 65 4.4 ENE 15 19 8 10 1016.7 1016.7 0.0
23/11:00pm 24.8 25.4 18.5 68 4.0 ENE 13 20 7 11 1017.0 1017.0 0.0

Other Formats:

Comma delimited format used in spreadsheet applications
http://www.bom.gov.au/fwo/IDQ60801/IDQ60801.94381.axf

JavaScript Object Notation format (JSON) in row-major order
http://www.bom.gov.au/fwo/IDQ60801/IDQ60801.94381.json